Terminal Aerodrome Forecast
Issued by NWS

Home | Current Version | Previous Version | Text Only | Print | Product List | Glossary On
Versions: 1 2 3 4 5 6 7 8 9 10 11 12 13 14 15 16 17 18
000
FTUS42 KTBW 181305 AAB
TAFPGD
TAF AMD
KPGD 181305Z 1813/1912 18007KT 6SM BR SCT005
      TEMPO 1813/1814 4SM BR BKN002
     FM181400 25008KT P6SM SCT050 BKN250
     FM182000 25010KT P6SM SCT025 BKN050
     FM190000 VRB05KT P6SM SCT030 BKN250
     FM190600 13003KT 6SM BR SCT250=

USA.gov is the U.S. government's official web portal to all federal, state and local government web resources and services.